Time,TemperatureF,DewpointF,PressureIn,WindDirection,WindDirectionDegrees,WindSpeedMPH,WindSpeedGustMPH,Humidity,HourlyPrecipIn,Conditions,Clouds,dailyrainin,SoftwareType,DateUTC
2013-12-30 00:03:00,39.2,31.0,30.08,NE,44,2.0,3.0,72,0.00,,,0.00,weatherlink.com 1.10,2013-12-30 08:03:00,
2013-12-30 00:18:00,40.2,31.0,30.08,NE,34,2.0,2.0,70,0.00,,,0.00,weatherlink.com 1.10,2013-12-30 08:18:00,
2013-12-30 00:33:00,39.6,31.0,30.08,NE,34,2.0,2.0,72,0.00,,,0.00,weatherlink.com 1.10,2013-12-30 08:33:00,
2013-12-30 00:48:00,38.7,31.0,30.08,NE,44,1.0,2.0,73,0.00,,,0.00,weatherlink.com 1.10,2013-12-30 08:48:00,
2013-12-30 01:03:00,38.0,31.0,30.08,NE,44,0.0,1.0,75,0.00,,,0.00,weatherlink.com 1.10,2013-12-30 09:03:00,
2013-12-30 01:18:00,38.0,31.0,30.08,NE,53,1.0,2.0,76,0.00,,,0.00,weatherlink.com 1.10,2013-12-30 09:18:00,
2013-12-30 01:33:00,38.1,31.0,30.08,NE,46,1.0,2.0,75,0.00,,,0.00,weatherlink.com 1.10,2013-12-30 09:33:00,
2013-12-30 01:48:00,37.5,30.0,30.08,NE,45,0.0,2.0,75,0.00,,,0.00,weatherlink.com 1.10,2013-12-30 09:48:00,
2013-12-30 02:03:00,36.9,30.0,30.08,NE,45,0.0,2.0,77,0.00,,,0.00,weatherlink.com 1.10,2013-12-30 10:03:00,
2013-12-30 02:18:00,36.9,30.0,30.09,ENE,59,2.0,3.0,76,0.00,,,0.00,weatherlink.com 1.10,2013-12-30 10:18:00,
2013-12-30 02:33:00,36.4,30.0,30.09,ENE,59,0.0,0.0,77,0.00,,,0.00,weatherlink.com 1.10,2013-12-30 10:33:00,
2013-12-30 02:48:00,35.9,30.0,30.09,ENE,59,0.0,2.0,78,0.00,,,0.00,weatherlink.com 1.10,2013-12-30 10:48:00,
2013-12-30 03:03:00,35.8,30.0,30.10,ENE,59,0.0,0.0,79,0.00,,,0.00,weatherlink.com 1.10,2013-12-30 11:03:00,
2013-12-30 03:18:00,35.3,30.0,30.10,ENE,59,0.0,1.0,81,0.00,,,0.00,weatherlink.com 1.10,2013-12-30 11:18:00,
2013-12-30 03:33:00,35.1,30.0,30.10,ENE,59,1.0,2.0,81,0.00,,,0.00,weatherlink.com 1.10,2013-12-30 11:33:00,
2013-12-30 03:48:00,35.2,30.0,30.10,ENE,59,0.0,2.0,80,0.00,,,0.00,weatherlink.com 1.10,2013-12-30 11:48:00,
2013-12-30 04:03:00,34.7,30.0,30.09,ENE,59,0.0,0.0,82,0.00,,,0.00,weatherlink.com 1.10,2013-12-30 12:03:00,
2013-12-30 04:18:00,34.8,30.0,30.09,NE,39,1.0,2.0,82,0.00,,,0.00,weatherlink.com 1.10,2013-12-30 12:18:00,
2013-12-30 04:33:00,34.9,30.0,30.10,NE,39,0.0,1.0,81,0.00,,,0.00,weatherlink.com 1.10,2013-12-30 12:33:00,
2013-12-30 04:48:00,35.0,30.0,30.09,NE,39,1.0,2.0,82,0.00,,,0.00,weatherlink.com 1.10,2013-12-30 12:48:00,
2013-12-30 05:03:00,35.0,30.0,30.09,NE,39,0.0,0.0,82,0.00,,,0.00,weatherlink.com 1.10,2013-12-30 13:03:00,
2013-12-30 05:19:00,35.1,30.0,30.09,ENE,70,1.0,3.0,82,0.00,,,0.00,weatherlink.com 1.10,2013-12-30 13:19:00,
2013-12-30 05:34:00,34.7,30.0,30.09,ENE,70,2.0,3.0,82,0.00,,,0.00,weatherlink.com 1.10,2013-12-30 13:34:00,
2013-12-30 05:49:00,34.1,29.0,30.10,ENE,70,1.0,3.0,82,0.00,,,0.00,weatherlink.com 1.10,2013-12-30 13:49:00,
2013-12-30 06:04:00,33.9,30.0,30.10,ENE,70,1.0,2.0,84,0.00,,,0.00,weatherlink.com 1.10,2013-12-30 14:04:00,
2013-12-30 06:19:00,33.9,29.0,30.10,ENE,67,0.0,1.0,83,0.00,,,0.00,weatherlink.com 1.10,2013-12-30 14:19:00,
2013-12-30 06:34:00,34.1,30.0,30.11,ENE,67,0.0,2.0,84,0.00,,,0.00,weatherlink.com 1.10,2013-12-30 14:34:00,
2013-12-30 06:49:00,33.6,29.0,30.11,ENE,67,1.0,2.0,84,0.00,,,0.00,weatherlink.com 1.10,2013-12-30 14:49:00,
2013-12-30 07:04:00,33.5,30.0,30.11,NE,44,0.0,3.0,85,0.00,,,0.00,weatherlink.com 1.10,2013-12-30 15:04:00,
2013-12-30 07:19:00,33.6,30.0,30.11,NE,44,0.0,0.0,85,0.00,,,0.00,weatherlink.com 1.10,2013-12-30 15:19:00,
2013-12-30 07:34:00,33.5,30.0,30.12,NE,44,0.0,0.0,85,0.00,,,0.00,weatherlink.com 1.10,2013-12-30 15:34:00,
2013-12-30 07:49:00,33.8,30.0,30.13,NE,46,2.0,3.0,85,0.00,,,0.00,weatherlink.com 1.10,2013-12-30 15:49:00,
2013-12-30 08:04:00,34.1,30.0,30.13,NE,44,0.0,2.0,84,0.00,,,0.00,weatherlink.com 1.10,2013-12-30 16:04:00,
2013-12-30 08:19:00,34.6,31.0,30.14,ENE,59,2.0,2.0,86,0.00,,,0.00,weatherlink.com 1.10,2013-12-30 16:19:00,
2013-12-30 08:34:00,35.9,31.0,30.14,ENE,59,0.0,1.0,83,0.00,,,0.00,weatherlink.com 1.10,2013-12-30 16:34:00,
2013-12-30 08:49:00,36.5,32.0,30.14,ENE,59,0.0,0.0,83,0.00,,,0.00,weatherlink.com 1.10,2013-12-30 16:49:00,
2013-12-30 09:04:00,38.4,33.0,30.15,ENE,59,0.0,2.0,82,0.00,,,0.00,weatherlink.com 1.10,2013-12-30 17:04:00,
2013-12-30 09:19:00,42.2,34.0,30.15,South,182,1.0,3.0,73,0.00,,,0.00,weatherlink.com 1.10,2013-12-30 17:19:00,
2013-12-30 09:34:00,44.8,35.0,30.15,SSW,193,2.0,3.0,68,0.00,,,0.00,weatherlink.com 1.10,2013-12-30 17:34:00,
2013-12-30 09:49:00,46.2,35.0,30.16,SSW,200,2.0,3.0,65,0.00,,,0.00,weatherlink.com 1.10,2013-12-30 17:49:00,
2013-12-30 10:04:00,48.2,35.0,30.15,SSW,204,3.0,5.0,61,0.00,,,0.00,weatherlink.com 1.10,2013-12-30 18:04:00,
2013-12-30 10:19:00,50.3,34.0,30.16,SSE,152,0.0,2.0,55,0.00,,,0.00,weatherlink.com 1.10,2013-12-30 18:19:00,
2013-12-30 10:34:00,51.1,35.0,30.16,SSW,207,1.0,3.0,55,0.00,,,0.00,weatherlink.com 1.10,2013-12-30 18:34:00,
2013-12-30 10:49:00,51.2,36.0,30.15,SSW,213,0.0,3.0,57,0.00,,,0.00,weatherlink.com 1.10,2013-12-30 18:49:00,
2013-12-30 11:04:00,52.1,37.0,30.15,East,89,0.0,3.0,56,0.00,,,0.00,weatherlink.com 1.10,2013-12-30 19:04:00,
2013-12-30 11:34:00,54.8,37.0,30.13,SSW,203,1.0,6.0,51,0.00,,,0.00,weatherlink.com 1.10,2013-12-30 19:34:00,
2013-12-30 11:50:00,56.2,38.0,30.12,SSW,207,5.0,6.0,51,0.00,,,0.00,weatherlink.com 1.10,2013-12-30 19:50:00,
2013-12-30 12:05:00,57.3,37.0,30.12,SSW,211,4.0,6.0,47,0.00,,,0.00,weatherlink.com 1.10,2013-12-30 20:05:00,
2013-12-30 12:20:00,58.2,37.0,30.11,SSE,159,0.0,7.0,46,0.00,,,0.00,weatherlink.com 1.10,2013-12-30 20:20:00,
2013-12-30 12:35:00,59.3,37.0,30.10,SW,235,1.0,4.0,44,0.00,,,0.00,weatherlink.com 1.10,2013-12-30 20:35:00,
2013-12-30 12:50:00,60.8,37.0,30.09,SW,223,1.0,5.0,41,0.00,,,0.00,weatherlink.com 1.10,2013-12-30 20:50:00,
2013-12-30 13:05:00,61.4,36.0,30.09,West,271,1.0,4.0,39,0.00,,,0.00,weatherlink.com 1.10,2013-12-30 21:05:00,
2013-12-30 13:20:00,61.9,36.0,30.08,SSW,212,0.0,2.0,39,0.00,,,0.00,weatherlink.com 1.10,2013-12-30 21:20:00,
2013-12-30 13:35:00,63.2,36.0,30.09,SW,216,1.0,5.0,37,0.00,,,0.00,weatherlink.com 1.10,2013-12-30 21:35:00,
2013-12-30 13:50:00,64.2,37.0,30.09,NW,314,1.0,6.0,37,0.00,,,0.00,weatherlink.com 1.10,2013-12-30 21:50:00,
2013-12-30 14:05:00,64.8,38.0,30.08,WNW,284,3.0,8.0,37,0.00,,,0.00,weatherlink.com 1.10,2013-12-30 22:05:00,
2013-12-30 14:20:00,63.9,38.0,30.09,WNW,296,3.0,9.0,39,0.00,,,0.00,weatherlink.com 1.10,2013-12-30 22:20:00,
2013-12-30 14:35:00,63.5,39.0,30.09,NW,306,3.0,6.0,40,0.00,,,0.00,weatherlink.com 1.10,2013-12-30 22:35:00,
2013-12-30 14:50:00,63.4,39.0,30.09,NNW,344,2.0,5.0,40,0.00,,,0.00,weatherlink.com 1.10,2013-12-30 22:50:00,
2013-12-30 15:05:00,63.4,39.0,30.09,WNW,284,7.0,8.0,41,0.00,,,0.00,weatherlink.com 1.10,2013-12-30 23:05:00,
2013-12-30 15:20:00,62.3,39.0,30.09,WNW,301,1.0,6.0,43,0.00,,,0.00,weatherlink.com 1.10,2013-12-30 23:20:00,
2013-12-30 15:35:00,61.7,39.0,30.09,WNW,298,1.0,3.0,44,0.00,,,0.00,weatherlink.com 1.10,2013-12-30 23:35:00,
2013-12-30 15:50:00,61.3,39.0,30.09,NW,311,2.0,4.0,44,0.00,,,0.00,weatherlink.com 1.10,2013-12-30 23:50:00,
2013-12-30 16:05:00,60.7,40.0,30.09,NW,310,0.0,1.0,46,0.00,,,0.00,weatherlink.com 1.10,2013-12-31 00:05:00,
2013-12-30 16:20:00,60.1,39.0,30.10,NW,310,1.0,2.0,46,0.00,,,0.00,weatherlink.com 1.10,2013-12-31 00:20:00,
2013-12-30 16:35:00,59.0,39.0,30.10,West,265,1.0,4.0,48,0.00,,,0.00,weatherlink.com 1.10,2013-12-31 00:35:00,
2013-12-30 16:50:00,57.4,39.0,30.10,NW,306,3.0,5.0,50,0.00,,,0.00,weatherlink.com 1.10,2013-12-31 00:50:00,
2013-12-30 17:05:00,56.2,39.0,30.11,NNW,347,3.0,4.0,52,0.00,,,0.00,weatherlink.com 1.10,2013-12-31 01:05:00,
2013-12-30 17:20:00,55.5,38.0,30.10,WNW,302,1.0,4.0,53,0.00,,,0.00,weatherlink.com 1.10,2013-12-31 01:20:00,
2013-12-30 17:35:00,54.6,39.0,30.10,WNW,302,0.0,2.0,55,0.00,,,0.00,weatherlink.com 1.10,2013-12-31 01:35:00,
2013-12-30 17:50:00,53.4,39.0,30.11,WNW,302,0.0,0.0,58,0.00,,,0.00,weatherlink.com 1.10,2013-12-31 01:50:00,
2013-12-30 18:05:00,52.0,38.0,30.11,WNW,302,1.0,2.0,60,0.00,,,0.00,weatherlink.com 1.10,2013-12-31 02:05:00,
2013-12-30 18:20:00,51.0,38.0,30.11,North,355,0.0,1.0,62,0.00,,,0.00,weatherlink.com 1.10,2013-12-31 02:20:00,
2013-12-30 18:35:00,49.7,38.0,30.12,ENE,69,1.0,1.0,65,0.00,,,0.00,weatherlink.com 1.10,2013-12-31 02:35:00,
2013-12-30 18:50:00,48.9,38.0,30.12,ENE,69,1.0,2.0,66,0.00,,,0.00,weatherlink.com 1.10,2013-12-31 02:50:00,
2013-12-30 19:05:00,48.3,38.0,30.12,ENE,60,1.0,2.0,67,0.00,,,0.00,weatherlink.com 1.10,2013-12-31 03:05:00,
2013-12-30 19:20:00,47.6,38.0,30.12,ENE,60,1.0,2.0,69,0.00,,,0.00,weatherlink.com 1.10,2013-12-31 03:20:00,
2013-12-30 19:35:00,46.8,38.0,30.13,ENE,60,0.0,1.0,71,0.00,,,0.00,weatherlink.com 1.10,2013-12-31 03:35:00,
2013-12-30 19:50:00,46.6,38.0,30.13,ENE,60,0.0,1.0,71,0.00,,,0.00,weatherlink.com 1.10,2013-12-31 03:50:00,
2013-12-30 20:05:00,45.9,37.0,30.13,ENE,60,1.0,3.0,72,0.00,,,0.00,weatherlink.com 1.10,2013-12-31 04:05:00,
2013-12-30 20:20:00,45.0,37.0,30.13,NE,36,2.0,4.0,74,0.00,,,0.00,weatherlink.com 1.10,2013-12-31 04:20:00,
2013-12-30 20:35:00,44.9,37.0,30.13,NE,36,0.0,3.0,73,0.00,,,0.00,weatherlink.com 1.10,2013-12-31 04:35:00,
2013-12-30 20:50:00,44.9,37.0,30.14,NE,36,2.0,2.0,74,0.00,,,0.00,weatherlink.com 1.10,2013-12-31 04:50:00,
2013-12-30 21:05:00,44.5,37.0,30.14,NE,41,0.0,2.0,74,0.00,,,0.00,weatherlink.com 1.10,2013-12-31 05:05:00,
2013-12-30 21:20:00,44.5,37.0,30.13,NE,41,2.0,2.0,75,0.00,,,0.00,weatherlink.com 1.10,2013-12-31 05:20:00,
2013-12-30 21:35:00,44.0,37.0,30.14,NE,41,1.0,2.0,75,0.00,,,0.00,weatherlink.com 1.10,2013-12-31 05:35:00,
2013-12-30 21:50:00,43.4,36.0,30.14,ENE,61,1.0,2.0,75,0.00,,,0.00,weatherlink.com 1.10,2013-12-31 05:50:00,
2013-12-30 22:05:00,43.0,36.0,30.14,NE,42,2.0,3.0,76,0.00,,,0.00,weatherlink.com 1.10,2013-12-31 06:05:00,
2013-12-30 22:20:00,43.0,36.0,30.14,NE,37,3.0,3.0,76,0.00,,,0.00,weatherlink.com 1.10,2013-12-31 06:20:00,
2013-12-30 22:35:00,42.7,36.0,30.14,NNE,28,0.0,1.0,78,0.00,,,0.00,weatherlink.com 1.10,2013-12-31 06:35:00,
2013-12-30 22:50:00,42.5,36.0,30.14,NNE,28,1.0,2.0,78,0.00,,,0.00,weatherlink.com 1.10,2013-12-31 06:50:00,
2013-12-30 23:06:00,42.0,36.0,30.14,ENE,59,1.0,3.0,78,0.00,,,0.00,weatherlink.com 1.10,2013-12-31 07:06:00,
2013-12-30 23:21:00,40.8,35.0,30.14,ENE,59,1.0,3.0,80,0.00,,,0.00,weatherlink.com 1.10,2013-12-31 07:21:00,
2013-12-30 23:36:00,40.3,35.0,30.14,ENE,63,0.0,2.0,81,0.00,,,0.00,weatherlink.com 1.10,2013-12-31 07:36:00,
2013-12-30 23:51:00,40.0,35.0,30.14,ENE,63,0.0,0.0,81,0.00,,,0.00,weatherlink.com 1.10,2013-12-31 07:51:00,